createdAt,value
2018-03-26T00:00:20.567Z,99932
2018-03-26T00:02:49.586Z,99931
2018-03-26T00:05:17.768Z,99925
2018-03-26T00:07:45.993Z,99927
2018-03-26T00:10:24.234Z,99918
2018-03-26T00:12:52.484Z,99931
2018-03-26T00:15:21.507Z,99923
2018-03-26T00:20:50.263Z,99927
2018-03-26T00:23:19.954Z,99927
2018-03-26T00:25:48.914Z,99925
2018-03-26T00:28:17.190Z,99927
2018-03-26T00:30:45.368Z,99922
2018-03-26T00:33:23.950Z,99930
2018-03-26T00:35:52.148Z,99918
2018-03-26T00:38:23.682Z,99917
2018-03-26T00:40:52.650Z,99919
2018-03-26T00:43:20.823Z,99912
2018-03-26T00:45:48.999Z,99919
2018-03-26T00:48:22.927Z,99914
2018-03-26T00:50:51.877Z,99914
2018-03-26T00:53:38.127Z,99917
2018-03-26T00:56:07.076Z,99914
2018-03-26T00:58:35.247Z,99915
2018-03-26T01:01:03.490Z,99920
2018-03-26T01:03:31.674Z,99912
2018-03-26T01:06:23.581Z,99917
2018-03-26T01:08:51.762Z,99910
2018-03-26T01:11:19.950Z,99921
2018-03-26T01:13:48.159Z,99916
2018-03-26T01:16:22.949Z,99914
2018-03-26T01:18:51.270Z,99916
2018-03-26T01:21:25.694Z,99917
2018-03-26T01:23:53.908Z,99922
2018-03-26T01:26:22.153Z,99917
2018-03-26T01:28:50.392Z,99915
2018-03-26T01:31:18.607Z,99916
2018-03-26T01:34:26.954Z,99911
2018-03-26T01:36:55.248Z,99919
2018-03-26T01:39:23.411Z,99915
2018-03-26T01:41:51.606Z,99915
2018-03-26T01:44:23.256Z,99912
2018-03-26T01:46:51.541Z,99909
2018-03-26T01:49:19.721Z,99902
2018-03-26T01:51:48.785Z,99904
2018-03-26T01:54:16.980Z,99910
2018-03-26T01:56:45.163Z,99905
2018-03-26T01:59:13.376Z,99909
2018-03-26T02:01:41.551Z,99908
2018-03-26T02:04:09.850Z,99913
2018-03-26T02:06:38.068Z,99912
2018-03-26T02:12:07.260Z,99917
2018-03-26T02:14:37.059Z,99919
2018-03-26T02:17:25.322Z,99918
2018-03-26T02:19:53.490Z,99923
2018-03-26T02:22:21.672Z,99925
2018-03-26T02:24:49.894Z,99919
2018-03-26T02:27:18.088Z,99920
2018-03-26T02:29:46.483Z,99920
2018-03-26T02:32:14.708Z,99925
2018-03-26T02:34:42.893Z,99923
2018-03-26T02:37:11.085Z,99918
2018-03-26T02:42:41.498Z,99936
2018-03-26T02:45:09.688Z,99937
2018-03-26T02:47:37.884Z,99923
2018-03-26T02:50:06.101Z,99926
2018-03-26T02:52:35.052Z,99917
2018-03-26T02:55:03.232Z,99917
2018-03-26T02:57:31.450Z,99927
2018-03-26T03:00:00.412Z,99928
2018-03-26T03:02:28.610Z,99928
2018-03-26T03:04:57.602Z,99924
2018-03-26T03:07:26.552Z,99920
2018-03-26T03:09:54.737Z,99920
2018-03-26T03:12:23.484Z,99911
2018-03-26T03:14:51.671Z,99926
2018-03-26T03:17:19.875Z,99921
2018-03-26T03:19:48.102Z,99925
2018-03-26T03:22:23.621Z,99921
2018-03-26T03:24:52.592Z,99919
2018-03-26T03:27:20.782Z,99919
2018-03-26T03:29:49.944Z,99918
2018-03-26T03:32:18.154Z,99917
2018-03-26T03:34:47.180Z,99917
2018-03-26T03:37:15.373Z,99916
2018-03-26T03:39:43.597Z,99911
2018-03-26T03:42:12.548Z,99908
2018-03-26T03:44:40.735Z,99913
2018-03-26T03:47:09.029Z,99914
2018-03-26T03:49:38.037Z,99922
2018-03-26T03:52:06.980Z,99920
2018-03-26T03:58:06.403Z,99925
2018-03-26T04:00:34.621Z,99924
2018-03-26T04:03:03.568Z,99924
2018-03-26T04:05:31.746Z,99917
2018-03-26T04:07:59.956Z,99920
2018-03-26T04:10:28.899Z,99915
2018-03-26T04:12:57.084Z,99919
2018-03-26T04:15:25.313Z,99914
2018-03-26T04:18:23.251Z,99919
2018-03-26T04:20:51.482Z,99919
2018-03-26T04:23:19.675Z,99917
2018-03-26T04:25:47.874Z,99914
2018-03-26T04:28:16.084Z,99912
2018-03-26T04:30:44.632Z,99908
2018-03-26T04:33:13.585Z,99907
2018-03-26T04:35:41.816Z,99911
2018-03-26T04:38:10.764Z,99912
2018-03-26T04:40:38.957Z,99919
2018-03-26T04:43:07.935Z,99915
2018-03-26T04:48:39.554Z,99924
2018-03-26T04:51:07.738Z,99922
2018-03-26T04:53:35.957Z,99922
2018-03-26T04:56:04.150Z,99923
2018-03-26T04:58:33.091Z,99916
2018-03-26T05:01:01.315Z,99921
2018-03-26T05:06:17.247Z,99926
2018-03-26T05:08:45.444Z,99929
2018-03-26T05:11:13.635Z,99924
2018-03-26T05:16:42.001Z,99929
2018-03-26T05:19:10.186Z,99929
2018-03-26T05:21:38.372Z,99928
2018-03-26T05:24:06.771Z,99922
2018-03-26T05:26:34.948Z,99924
2018-03-26T05:29:03.137Z,99928
2018-03-26T05:31:32.246Z,99932
2018-03-26T05:34:00.428Z,99932
2018-03-26T05:36:28.613Z,99939
2018-03-26T05:38:56.827Z,99934
2018-03-26T05:41:25.099Z,99940
2018-03-26T05:43:53.280Z,99939
2018-03-26T05:46:25.080Z,99937
2018-03-26T05:48:53.252Z,99932
2018-03-26T05:51:21.448Z,99930
2018-03-26T05:53:49.668Z,99933
2018-03-26T05:56:17.844Z,99933
2018-03-26T05:58:46.033Z,99937
2018-03-26T06:01:15.016Z,99937
2018-03-26T06:03:43.955Z,99940
2018-03-26T06:06:12.138Z,99937
2018-03-26T06:08:40.339Z,99937
2018-03-26T06:11:08.516Z,99941
2018-03-26T06:13:36.688Z,99938
2018-03-26T06:16:04.905Z,99942
2018-03-26T06:21:34.213Z,99940
2018-03-26T06:30:23.875Z,99967
2018-03-26T07:00:47.994Z,99985
2018-03-26T07:03:23.285Z,99985
2018-03-26T07:08:51.291Z,99986
2018-03-26T07:11:20.234Z,99983
2018-03-26T07:13:48.416Z,99989
2018-03-26T07:16:16.637Z,99983
2018-03-26T07:21:45.963Z,99994
2018-03-26T07:24:14.144Z,99990
2018-03-26T07:26:42.317Z,99998
2018-03-26T07:29:10.541Z,99990
2018-03-26T07:31:38.721Z,99994
2018-03-26T07:34:06.996Z,99988
2018-03-26T07:36:35.221Z,99987
2018-03-26T07:39:03.416Z,99988
2018-03-26T07:41:31.604Z,99992
2018-03-26T07:43:59.820Z,99984
2018-03-26T07:46:28.767Z,99989
2018-03-26T07:48:56.998Z,99994
2018-03-26T07:51:25.231Z,99993
2018-03-26T07:53:53.398Z,99991
2018-03-26T07:56:21.585Z,99992
2018-03-26T07:58:49.818Z,100000
2018-03-26T08:01:24.318Z,99992
2018-03-26T08:03:52.535Z,99994
2018-03-26T08:06:20.725Z,100000
2018-03-26T08:08:48.917Z,100002
2018-03-26T08:11:18.024Z,100005
2018-03-26T08:13:46.973Z,100004
2018-03-26T08:16:15.161Z,100001
2018-03-26T08:18:43.381Z,100007
2018-03-26T08:21:11.565Z,100009
2018-03-26T08:23:39.737Z,100013
2018-03-26T08:26:07.961Z,100008
2018-03-26T08:31:36.601Z,100015
2018-03-26T08:34:04.827Z,100014
2018-03-26T08:36:33.041Z,100019
2018-03-26T08:39:01.259Z,100011
2018-03-26T08:41:29.444Z,100012
2018-03-26T08:43:57.638Z,100014
2018-03-26T08:46:26.618Z,100026
2018-03-26T08:48:54.814Z,100020
2018-03-26T08:51:23.769Z,100017
2018-03-26T08:53:51.988Z,100014
2018-03-26T08:56:26.636Z,100013
2018-03-26T08:58:54.853Z,100020
2018-03-26T09:07:25.135Z,100012
2018-03-26T09:09:54.083Z,100021
2018-03-26T09:12:22.272Z,100021
2018-03-26T09:14:50.499Z,100016
2018-03-26T09:17:25.204Z,100021
2018-03-26T09:22:55.111Z,100022
2018-03-26T09:28:24.177Z,100015
2018-03-26T09:34:23.495Z,100017
2018-03-26T09:46:22.508Z,100030
2018-03-26T09:48:51.464Z,100033
2018-03-26T09:54:25.957Z,100029
2018-03-26T09:56:54.895Z,100034
2018-03-26T09:59:23.486Z,100039
2018-03-26T10:04:52.249Z,100034
2018-03-26T10:19:23.929Z,100046
2018-03-26T10:24:52.713Z,100047
2018-03-26T10:27:24.193Z,100047
2018-03-26T10:33:23.907Z,100052
2018-03-26T10:38:52.875Z,100047
2018-03-26T10:50:25.072Z,100039
2018-03-26T10:55:54.124Z,100034
2018-03-26T11:01:23.535Z,100029
2018-03-26T11:07:22.070Z,100027
2018-03-26T11:19:19.216Z,100036
2018-03-26T11:43:23.607Z,100048
2018-03-26T11:46:22.400Z,100041
2018-03-26T11:49:19.051Z,100042
2018-03-26T12:00:48.218Z,100030
2018-03-26T12:03:23.472Z,100034
2018-03-26T12:09:22.175Z,100026
2018-03-26T12:18:22.096Z,100032
2018-03-26T12:27:22.364Z,100024
2018-03-26T12:48:14.045Z,100034
2018-03-26T12:51:01.826Z,100024
2018-03-26T12:53:30.183Z,100036
2018-03-26T12:56:20.021Z,100039
2018-03-26T12:59:01.595Z,100040
2018-03-26T13:29:10.009Z,100040
2018-03-26T13:31:38.193Z,100039
2018-03-26T13:52:06.491Z,100042
2018-03-26T13:54:43.446Z,100032
2018-03-26T14:03:25.321Z,100040
2018-03-26T14:06:11.018Z,100040
2018-03-26T14:11:58.161Z,100040
2018-03-26T14:14:44.324Z,100042
2018-03-26T14:17:31.369Z,100042
2018-03-26T14:19:59.558Z,100044
2018-03-26T14:22:27.744Z,100038
2018-03-26T14:24:55.968Z,100042
2018-03-26T14:27:24.935Z,100037
2018-03-26T14:29:53.147Z,100044
2018-03-26T14:48:50.322Z,100039
2018-03-26T14:51:24.667Z,100032
2018-03-26T14:53:52.882Z,100033
2018-03-26T14:56:21.836Z,100028
2018-03-26T14:58:50.032Z,100038
2018-03-26T15:04:20.483Z,100029
2018-03-26T15:06:48.671Z,100032
2018-03-26T15:09:18.020Z,100027
2018-03-26T15:11:46.286Z,100020
2018-03-26T15:14:14.481Z,100022
2018-03-26T15:16:42.664Z,100027
2018-03-26T15:19:10.898Z,100029
2018-03-26T15:21:39.076Z,100022
2018-03-26T15:24:07.271Z,100030
2018-03-26T15:26:35.515Z,100034
2018-03-26T15:29:23.080Z,100032
2018-03-26T15:31:51.311Z,100040
2018-03-26T15:37:19.354Z,100046
2018-03-26T15:39:47.532Z,100046
2018-03-26T15:45:24.374Z,100045
2018-03-26T15:47:53.301Z,100051
2018-03-26T15:50:21.593Z,100049
2018-03-26T15:52:49.827Z,100055
2018-03-26T15:55:18.002Z,100050
2018-03-26T15:57:46.182Z,100058
2018-03-26T16:00:14.399Z,100051
2018-03-26T16:02:48.297Z,100049
2018-03-26T16:05:16.554Z,100062
2018-03-26T16:07:44.735Z,100060
2018-03-26T16:16:24.898Z,100069
2018-03-26T16:18:53.897Z,100070
2018-03-26T16:21:22.090Z,100074
2018-03-26T16:23:50.311Z,100085
2018-03-26T16:26:24.864Z,100083
2018-03-26T16:28:53.089Z,100095
2018-03-26T16:31:22.109Z,100092
2018-03-26T16:33:50.293Z,100098
2018-03-26T16:36:18.529Z,100096
2018-03-26T16:41:48.773Z,100101
2018-03-26T16:47:19.106Z,100105
2018-03-26T16:49:47.285Z,100096
2018-03-26T16:52:24.505Z,100102
2018-03-26T16:54:52.706Z,100096
2018-03-26T16:57:20.899Z,100101
2018-03-26T16:59:49.120Z,100100
2018-03-26T17:02:17.296Z,100106
2018-03-26T17:04:45.484Z,100105
2018-03-26T17:07:14.050Z,100111
2018-03-26T17:09:42.255Z,100116
2018-03-26T17:12:23.687Z,100112
2018-03-26T17:17:53.400Z,100115
2018-03-26T17:20:25.723Z,100112
2018-03-26T17:22:53.958Z,100109
2018-03-26T17:25:22.899Z,100118
2018-03-26T17:27:51.094Z,100114
2018-03-26T17:30:19.316Z,100121
2018-03-26T17:35:48.042Z,100112
2018-03-26T17:41:16.752Z,100128
2018-03-26T17:43:44.941Z,100121
2018-03-26T17:46:27.381Z,100133
2018-03-26T17:51:57.622Z,100127
2018-03-26T17:54:26.571Z,100128
2018-03-26T17:57:23.102Z,100128
2018-03-26T17:59:51.299Z,100135
2018-03-26T18:05:26.492Z,100132
2018-03-26T18:10:29.791Z,100133
2018-03-26T18:12:58.752Z,100135
2018-03-26T18:15:26.936Z,100139
2018-03-26T18:17:55.155Z,100134
2018-03-26T18:20:23.340Z,100141
2018-03-26T18:25:52.291Z,100140
2018-03-26T18:28:20.490Z,100142
2018-03-26T18:30:49.455Z,100142
2018-03-26T18:33:17.667Z,100149
2018-03-26T18:35:46.622Z,100149
2018-03-26T18:38:14.808Z,100151
2018-03-26T18:40:43.033Z,100151
2018-03-26T18:43:11.232Z,100148
2018-03-26T18:45:39.429Z,100151
2018-03-26T18:48:07.659Z,100154
2018-03-26T18:50:35.862Z,100159
2018-03-26T18:53:04.043Z,100161
2018-03-26T18:55:33.774Z,100160
2018-03-26T18:58:23.592Z,100157
2018-03-26T19:00:51.832Z,100167
2018-03-26T19:06:21.011Z,100167
2018-03-26T19:08:49.307Z,100160
2018-03-26T19:13:51.004Z,100170
2018-03-26T19:16:19.196Z,100165
2018-03-26T19:18:47.380Z,100172
2018-03-26T19:21:15.607Z,100169
2018-03-26T19:23:44.624Z,100168
2018-03-26T19:26:14.523Z,100167
2018-03-26T19:28:42.796Z,100178
2018-03-26T19:31:11.758Z,100170
2018-03-26T19:33:39.959Z,100169
2018-03-26T19:36:08.972Z,100180
2018-03-26T19:38:37.157Z,100177
2018-03-26T19:41:05.348Z,100178
2018-03-26T19:43:36.356Z,100175
2018-03-26T19:46:04.540Z,100177
2018-03-26T19:48:32.753Z,100172
2018-03-26T19:54:01.901Z,100174
2018-03-26T19:56:30.876Z,100184
2018-03-26T19:58:59.062Z,100181
2018-03-26T20:01:28.064Z,100179
2018-03-26T20:07:24.496Z,100188
2018-03-26T20:09:52.877Z,100191
2018-03-26T20:12:21.068Z,100190
2018-03-26T20:23:52.669Z,100200
2018-03-26T20:26:21.614Z,100199
2018-03-26T20:28:49.863Z,100202
2018-03-26T20:31:18.140Z,100208
2018-03-26T20:33:46.326Z,100198
2018-03-26T20:36:14.536Z,100209
2018-03-26T20:38:42.756Z,100210
2018-03-26T20:41:10.959Z,100213
2018-03-26T20:43:39.203Z,100213
2018-03-26T20:46:07.401Z,100212
2018-03-26T20:48:35.664Z,100212
2018-03-26T20:54:04.439Z,100217
2018-03-26T20:56:33.386Z,100227
2018-03-26T20:59:01.575Z,100219
2018-03-26T21:01:29.795Z,100218
2018-03-26T21:03:58.002Z,100228
2018-03-26T21:06:26.248Z,100223
2018-03-26T21:08:54.451Z,100219
2018-03-26T21:11:22.654Z,100223
2018-03-26T21:13:50.881Z,100216
2018-03-26T21:19:26.228Z,100226
2018-03-26T21:21:54.448Z,100218
2018-03-26T21:24:25.901Z,100223
2018-03-26T21:26:54.083Z,100223
2018-03-26T21:29:22.329Z,100224
2018-03-26T21:37:52.954Z,100228
2018-03-26T21:40:21.935Z,100213
2018-03-26T21:42:50.926Z,100227
2018-03-26T21:45:19.916Z,100231
2018-03-26T21:47:48.110Z,100222
2018-03-26T21:50:16.309Z,100223
2018-03-26T21:52:44.560Z,100229
2018-03-26T21:55:12.749Z,100226
2018-03-26T22:00:25.471Z,100225
2018-03-26T22:02:53.655Z,100218
2018-03-26T22:05:21.945Z,100219
2018-03-26T22:07:50.142Z,100216
2018-03-26T22:10:18.344Z,100221
2018-03-26T22:12:47.348Z,100231
2018-03-26T22:15:16.330Z,100230
2018-03-26T22:17:45.353Z,100235
2018-03-26T22:20:13.543Z,100232
2018-03-26T22:22:41.737Z,100236
2018-03-26T22:25:09.971Z,100231
2018-03-26T22:27:38.229Z,100236
2018-03-26T22:30:07.193Z,100226
2018-03-26T22:32:35.389Z,100231
2018-03-26T22:35:04.408Z,100245
2018-03-26T22:37:32.596Z,100232
2018-03-26T22:40:24.679Z,100233
2018-03-26T22:42:52.878Z,100240
2018-03-26T22:45:21.058Z,100233
2018-03-26T22:47:49.277Z,100239
2018-03-26T22:50:17.460Z,100246
2018-03-26T22:52:45.705Z,100246
2018-03-26T22:55:13.915Z,100249
2018-03-26T22:57:42.130Z,100253
2018-03-26T23:00:10.343Z,100259
2018-03-26T23:02:38.532Z,100256
2018-03-26T23:05:06.778Z,100253
2018-03-26T23:07:34.968Z,100250
2018-03-26T23:10:03.196Z,100262
2018-03-26T23:12:31.371Z,100265
2018-03-26T23:15:23.123Z,100256
2018-03-26T23:17:51.315Z,100264
2018-03-26T23:20:19.524Z,100265
2018-03-26T23:22:48.502Z,100261
2018-03-26T23:25:16.733Z,100264
2018-03-26T23:27:44.935Z,100270
2018-03-26T23:30:13.125Z,100265
2018-03-26T23:32:41.336Z,100268
2018-03-26T23:38:11.112Z,100263
2018-03-26T23:40:39.313Z,100265
2018-03-26T23:45:41.702Z,100277
2018-03-26T23:48:09.905Z,100272
2018-03-26T23:50:38.130Z,100278
2018-03-26T23:53:06.324Z,100280
2018-03-26T23:55:35.345Z,100274
2018-03-26T23:58:23.775Z,100280
